createdAt,value
2023-04-12T00:01:08.594Z,1.05
2023-04-12T00:03:36.353Z,2.30
2023-04-12T00:06:07.256Z,2.40
2023-04-12T00:08:35.572Z,2.72
2023-04-12T00:11:03.748Z,2.33
2023-04-12T00:13:31.381Z,1.50
2023-04-12T00:15:59.236Z,1.25
2023-04-12T00:18:27.418Z,1.90
2023-04-12T00:20:56.143Z,1.15
2023-04-12T00:23:23.674Z,1.42
2023-04-12T00:25:51.292Z,1.95
2023-04-12T00:28:20.275Z,1.95
2023-04-12T00:30:47.872Z,5.03
2023-04-12T00:33:15.510Z,1.30
2023-04-12T00:35:43.152Z,2.03
2023-04-12T00:38:11.146Z,2.25
2023-04-12T00:40:42.819Z,1.55
2023-04-12T00:43:15.327Z,2.15
2023-04-12T00:45:43.149Z,1.77
2023-04-12T00:48:11.054Z,1.42
2023-04-12T00:50:41.731Z,2.45
2023-04-12T00:53:11.815Z,1.92
2023-04-12T00:55:39.760Z,2.70
2023-04-12T00:58:07.486Z,5.10
2023-04-12T01:00:35.225Z,5.70
2023-04-12T01:03:05.295Z,1.50
2023-04-12T01:05:36.273Z,5.00
2023-04-12T01:08:15.580Z,1.92
2023-04-12T01:10:43.378Z,1.73
2023-04-12T01:13:11.715Z,3.63
2023-04-12T01:15:41.869Z,2.03
2023-04-12T01:18:12.817Z,2.27
2023-04-12T01:20:48.393Z,2.17
2023-04-12T01:23:39.772Z,4.60
2023-04-12T01:26:12.771Z,2.72
2023-04-12T01:28:43.305Z,3.50
2023-04-12T01:31:13.856Z,1.98
2023-04-12T01:33:41.520Z,2.60
2023-04-12T01:36:14.101Z,3.42
2023-04-12T01:38:42.563Z,2.15
2023-04-12T01:41:11.481Z,1.92
2023-04-12T01:43:46.033Z,2.60
2023-04-12T01:46:14.571Z,3.20
2023-04-12T01:48:42.894Z,2.70
2023-04-12T01:51:26.037Z,2.05
2023-04-12T01:53:58.688Z,3.00
2023-04-12T01:56:31.202Z,4.68
2023-04-12T01:58:59.786Z,1.88
2023-04-12T02:01:29.279Z,1.73
2023-04-12T02:03:59.616Z,1.52
2023-04-12T02:06:28.167Z,3.40
2023-04-12T02:09:02.814Z,1.60
2023-04-12T02:11:30.680Z,3.42
2023-04-12T02:13:59.011Z,2.05
2023-04-12T02:16:29.588Z,2.05
2023-04-12T02:18:57.457Z,1.90
2023-04-12T02:21:27.576Z,2.50
2023-04-12T02:23:55.347Z,1.48
2023-04-12T02:26:23.558Z,2.00
2023-04-12T02:28:52.691Z,1.48
2023-04-12T02:31:20.559Z,1.60
2023-04-12T02:33:49.847Z,2.72
2023-04-12T02:36:18.390Z,1.02
2023-04-12T02:38:46.199Z,1.40
2023-04-12T02:41:18.094Z,1.38
2023-04-12T02:43:46.223Z,2.03
2023-04-12T02:46:19.566Z,1.77
2023-04-12T02:48:51.131Z,2.58
2023-04-12T02:51:20.500Z,2.25
2023-04-12T02:53:51.301Z,2.53
2023-04-12T02:56:24.619Z,4.75
2023-04-12T02:59:00.761Z,5.75
2023-04-12T03:01:51.850Z,2.65
2023-04-12T03:04:30.116Z,3.47
2023-04-12T03:07:00.285Z,2.53
2023-04-12T03:09:38.576Z,1.95
2023-04-12T03:12:06.549Z,2.10
2023-04-12T03:14:38.739Z,2.92
2023-04-12T03:17:08.337Z,2.28
2023-04-12T03:19:37.652Z,3.78
2023-04-12T03:22:06.146Z,5.20
2023-04-12T03:24:37.473Z,3.30
2023-04-12T03:27:06.924Z,2.83
2023-04-12T03:29:36.592Z,2.15
2023-04-12T03:32:05.791Z,2.30
2023-04-12T03:34:36.406Z,2.95
2023-04-12T03:37:12.126Z,4.00
2023-04-12T03:39:47.671Z,3.92
2023-04-12T03:42:32.366Z,2.42
2023-04-12T03:45:09.808Z,2.42
2023-04-12T03:47:37.918Z,2.10
2023-04-12T03:50:11.533Z,2.50
2023-04-12T03:52:44.608Z,2.42
2023-04-12T03:55:13.537Z,2.00
2023-04-12T03:57:42.529Z,2.72
2023-04-12T04:00:11.210Z,2.75
2023-04-12T04:02:58.771Z,3.63
2023-04-12T04:05:26.704Z,4.18
2023-04-12T04:07:54.536Z,3.08
2023-04-12T04:10:22.526Z,5.07
2023-04-12T04:12:50.134Z,4.45
2023-04-12T04:15:17.713Z,4.60
2023-04-12T04:17:47.474Z,3.10
2023-04-12T04:20:16.188Z,4.07
2023-04-12T04:22:48.956Z,3.53
2023-04-12T04:25:17.388Z,3.58
2023-04-12T04:27:52.039Z,5.82
2023-04-12T04:30:23.233Z,4.90
2023-04-12T04:32:51.039Z,2.58
2023-04-12T04:35:24.191Z,2.92
2023-04-12T04:38:04.112Z,4.28
2023-04-12T04:40:32.991Z,3.08
2023-04-12T04:43:02.095Z,5.32
2023-04-12T04:45:36.610Z,4.55
2023-04-12T04:48:04.339Z,4.85
2023-04-12T04:50:31.977Z,3.00
2023-04-12T04:52:59.669Z,4.32
2023-04-12T04:55:29.594Z,4.07
2023-04-12T04:57:58.011Z,6.93
2023-04-12T05:00:26.180Z,4.43
2023-04-12T05:02:57.420Z,3.67
2023-04-12T05:05:28.616Z,4.65
2023-04-12T05:08:03.330Z,3.13
2023-04-12T05:10:33.316Z,2.97
2023-04-12T05:13:03.388Z,3.63
2023-04-12T05:15:35.033Z,2.50
2023-04-12T05:18:03.005Z,4.00
2023-04-12T05:20:32.146Z,3.10
2023-04-12T05:23:00.260Z,4.32
2023-04-12T05:25:31.040Z,2.75
2023-04-12T05:28:05.993Z,3.30
2023-04-12T05:30:36.838Z,4.13
2023-04-12T05:33:04.981Z,4.38
2023-04-12T05:35:32.917Z,5.50
2023-04-12T05:38:01.113Z,3.63
2023-04-12T05:40:28.773Z,3.20
2023-04-12T05:42:56.576Z,5.43
2023-04-12T05:45:24.701Z,6.35
2023-04-12T05:47:52.407Z,3.80
2023-04-12T05:50:20.753Z,5.10
2023-04-12T05:52:48.678Z,6.18
2023-04-12T05:55:18.875Z,4.53
2023-04-12T05:57:46.891Z,3.90
2023-04-12T06:00:18.546Z,5.75
2023-04-12T06:02:47.813Z,5.05
2023-04-12T06:05:19.525Z,3.47
2023-04-12T06:07:48.181Z,4.07
2023-04-12T06:10:17.367Z,3.42
2023-04-12T06:12:48.257Z,3.03
2023-04-12T06:15:16.020Z,2.85
2023-04-12T06:17:43.934Z,4.28
2023-04-12T06:20:12.319Z,6.13
2023-04-12T06:22:40.176Z,3.03
2023-04-12T06:25:08.262Z,3.35
2023-04-12T06:27:36.252Z,3.40
2023-04-12T06:30:04.247Z,5.07
2023-04-12T06:32:35.561Z,3.38
2023-04-12T06:35:03.268Z,4.00
2023-04-12T06:37:30.916Z,3.35
2023-04-12T06:39:58.743Z,3.50
2023-04-12T06:42:29.797Z,4.55
2023-04-12T06:47:26.075Z,4.43
2023-04-12T06:49:56.209Z,2.72
2023-04-12T06:52:26.864Z,3.07
2023-04-12T06:54:55.304Z,2.70
2023-04-12T06:57:23.887Z,3.30
2023-04-12T06:59:52.560Z,4.22
2023-04-12T07:02:21.809Z,2.65
2023-04-12T07:04:54.150Z,2.80
2023-04-12T07:07:21.892Z,4.07
2023-04-12T07:09:49.620Z,2.42
2023-04-12T07:12:19.992Z,2.78
2023-04-12T07:14:47.645Z,3.33
2023-04-12T07:17:15.344Z,2.17
2023-04-12T07:19:44.383Z,2.25
2023-04-12T07:22:13.572Z,2.70
2023-04-12T07:24:41.785Z,3.40
2023-04-12T07:27:11.095Z,2.33
2023-04-12T07:29:38.666Z,3.03
2023-04-12T07:32:06.623Z,3.92
2023-04-12T07:34:34.480Z,2.65
2023-04-12T07:37:04.473Z,3.30
2023-04-12T07:39:32.539Z,2.90
2023-04-12T07:42:00.236Z,3.17
2023-04-12T07:44:27.903Z,2.50
2023-04-12T07:46:55.530Z,2.28
2023-04-12T07:49:23.183Z,1.92
2023-04-12T07:51:51.143Z,2.40
2023-04-12T07:54:18.859Z,3.15
2023-04-12T07:56:59.527Z,2.72
2023-04-12T07:59:27.387Z,2.83
2023-04-12T08:01:55.009Z,1.25
2023-04-12T08:04:22.928Z,4.13
2023-04-12T08:06:50.894Z,1.70
2023-04-12T08:09:18.575Z,2.20
2023-04-12T08:11:47.336Z,4.03
2023-04-12T08:14:15.281Z,1.55
2023-04-12T08:16:42.872Z,3.10
2023-04-12T08:19:11.631Z,1.75
2023-04-12T08:21:39.230Z,1.50
2023-04-12T08:24:07.015Z,1.80
2023-04-12T08:26:34.671Z,1.98
2023-04-12T08:29:03.420Z,2.90
2023-04-12T08:31:31.360Z,2.08
2023-04-12T08:33:59.927Z,2.25
2023-04-12T08:36:27.834Z,3.80
2023-04-12T08:38:59.015Z,3.17
2023-04-12T08:41:26.998Z,2.20
2023-04-12T08:43:55.506Z,2.85
2023-04-12T08:46:23.547Z,3.67
2023-04-12T08:48:57.134Z,2.58
2023-04-12T08:51:24.778Z,4.00
2023-04-12T08:53:54.104Z,3.25
2023-04-12T08:56:23.642Z,1.83
2023-04-12T08:58:51.734Z,2.25
2023-04-12T09:01:20.640Z,1.52
2023-04-12T09:03:48.438Z,3.92
2023-04-12T09:06:16.189Z,1.90
2023-04-12T09:09:08.091Z,1.98
2023-04-12T09:11:36.430Z,2.00
2023-04-12T09:14:04.074Z,1.58
2023-04-12T09:16:41.697Z,3.58
2023-04-12T09:19:09.755Z,2.88
2023-04-12T09:21:38.114Z,2.55
2023-04-12T09:24:12.317Z,2.58
2023-04-12T09:26:41.787Z,2.40
2023-04-12T09:29:25.759Z,1.95
2023-04-12T09:32:03.679Z,2.55
2023-04-12T09:34:31.846Z,2.63
2023-04-12T09:36:59.567Z,2.20
2023-04-12T09:39:37.141Z,2.30
2023-04-12T09:42:14.867Z,0.30
2023-04-12T09:44:54.451Z,1.00
2023-04-12T09:47:22.552Z,0.40
2023-04-12T09:49:50.323Z,0.70
2023-04-12T09:52:18.044Z,0.75
2023-04-12T09:54:46.297Z,2.08
2023-04-12T09:57:14.400Z,0.95
2023-04-12T09:59:42.695Z,1.75
2023-04-12T10:02:18.639Z,0.45
2023-04-12T10:04:46.778Z,0.73
2023-04-12T10:07:15.176Z,0.63
2023-04-12T10:09:43.226Z,2.28
2023-04-12T10:12:11.220Z,5.38
2023-04-12T10:14:39.672Z,0.70
2023-04-12T10:17:09.627Z,0.43
2023-04-12T10:19:38.198Z,0.60
2023-04-12T10:22:05.992Z,1.13
2023-04-12T10:24:36.852Z,1.73
2023-04-12T10:27:04.684Z,0.70
2023-04-12T10:29:34.639Z,0.50
2023-04-12T10:32:34.116Z,3.33
2023-04-12T10:35:05.839Z,0.57
2023-04-12T10:38:02.937Z,0.68
2023-04-12T10:40:34.277Z,0.75
2023-04-12T10:43:21.969Z,1.40
2023-04-12T10:45:50.113Z,0.80
2023-04-12T10:48:31.396Z,0.88
2023-04-12T10:51:23.159Z,0.30
2023-04-12T10:53:51.115Z,0.75
2023-04-12T10:56:32.969Z,0.65
2023-04-12T10:59:07.890Z,2.45
2023-04-12T11:01:41.563Z,0.40
2023-04-12T11:04:09.501Z,0.30
2023-04-12T11:06:49.600Z,0.60
2023-04-12T11:09:40.816Z,0.43
2023-04-12T11:12:10.968Z,1.00
2023-04-12T11:14:38.880Z,0.43
2023-04-12T11:17:06.547Z,1.23
2023-04-12T11:19:34.820Z,1.55
2023-04-12T11:22:04.233Z,0.45
2023-04-12T11:24:32.043Z,0.30
2023-04-12T11:27:01.077Z,2.65
2023-04-12T11:29:28.635Z,0.45
2023-04-12T11:31:56.344Z,1.23
2023-04-12T11:34:24.101Z,0.30
2023-04-12T11:36:55.347Z,1.25
2023-04-12T11:39:23.167Z,2.33
2023-04-12T11:41:50.823Z,0.47
2023-04-12T11:44:19.335Z,0.20
2023-04-12T11:46:47.067Z,1.08
2023-04-12T11:49:18.315Z,0.80
2023-04-12T11:51:48.978Z,0.40
2023-04-12T11:54:17.261Z,0.50
2023-04-12T11:56:44.978Z,0.60
2023-04-12T11:59:12.620Z,0.40
2023-04-12T12:01:40.210Z,0.85
2023-04-12T12:04:08.026Z,0.50
2023-04-12T12:06:35.836Z,0.30
2023-04-12T12:09:03.993Z,0.30
2023-04-12T12:11:32.995Z,0.30
2023-04-12T12:14:00.744Z,0.30
2023-04-12T12:16:29.498Z,0.32
2023-04-12T12:18:57.921Z,0.57
2023-04-12T12:21:30.085Z,0.90
2023-04-12T12:23:58.685Z,1.83
2023-04-12T12:26:30.736Z,0.25
2023-04-12T12:29:00.583Z,0.30
2023-04-12T12:31:28.996Z,1.30
2023-04-12T12:33:57.859Z,0.30
2023-04-12T12:36:36.315Z,0.52
2023-04-12T12:39:07.091Z,0.43
2023-04-12T12:41:35.378Z,1.60
2023-04-12T12:44:03.030Z,0.30
2023-04-12T12:46:44.688Z,0.98
2023-04-12T12:49:20.416Z,0.93
2023-04-12T12:51:48.121Z,0.20
2023-04-12T12:54:39.364Z,0.20
2023-04-12T12:57:08.974Z,0.30
2023-04-12T12:59:36.528Z,0.40
2023-04-12T13:02:05.294Z,0.25
2023-04-12T13:04:33.091Z,0.30
2023-04-12T13:07:00.721Z,0.20
2023-04-12T13:09:29.414Z,0.30
2023-04-12T13:11:57.160Z,0.22
2023-04-12T13:14:24.923Z,0.30
2023-04-12T13:16:52.754Z,0.20
2023-04-12T13:19:20.792Z,0.20
2023-04-12T13:21:49.890Z,0.32
2023-04-12T13:24:19.171Z,0.20
2023-04-12T13:26:47.110Z,0.30
2023-04-12T13:29:14.714Z,0.20
2023-04-12T13:31:43.086Z,0.20
2023-04-12T13:34:10.736Z,0.35
2023-04-12T13:36:38.285Z,0.20
2023-04-12T13:39:05.915Z,0.43
2023-04-12T13:41:34.156Z,0.35
2023-04-12T13:44:02.390Z,0.22
2023-04-12T13:46:30.039Z,0.22
2023-04-12T13:48:58.374Z,0.40
2023-04-12T13:51:26.661Z,0.10
2023-04-12T13:53:54.498Z,0.30
2023-04-12T13:56:22.380Z,0.32
2023-04-12T13:58:49.961Z,1.10
2023-04-12T14:01:17.961Z,0.30
2023-04-12T14:03:45.869Z,0.45
2023-04-12T14:06:13.607Z,0.32
2023-04-12T14:08:41.328Z,0.38
2023-04-12T14:11:08.955Z,0.20
2023-04-12T14:13:36.861Z,0.20
2023-04-12T14:16:04.544Z,0.52
2023-04-12T14:18:32.198Z,0.38
2023-04-12T14:20:59.885Z,0.45
2023-04-12T14:23:27.677Z,0.40
2023-04-12T14:25:55.467Z,0.20
2023-04-12T14:28:30.716Z,0.32
2023-04-12T14:30:58.587Z,0.25
2023-04-12T14:33:26.129Z,0.20
2023-04-12T14:35:53.793Z,0.20
2023-04-12T14:38:22.699Z,0.30
2023-04-12T14:40:51.694Z,1.30
2023-04-12T14:43:19.221Z,0.85
2023-04-12T14:45:46.941Z,0.30
2023-04-12T14:48:14.748Z,0.20
2023-04-12T14:50:42.428Z,0.43
2023-04-12T14:53:10.073Z,0.30
2023-04-12T14:55:37.651Z,0.20
2023-04-12T14:58:05.252Z,0.40
2023-04-12T15:00:34.358Z,0.30
2023-04-12T15:03:02.479Z,0.20
2023-04-12T15:05:30.581Z,0.40
2023-04-12T15:07:58.211Z,0.20
2023-04-12T15:10:26.182Z,0.20
2023-04-12T15:12:53.747Z,0.47
2023-04-12T15:15:21.420Z,0.38
2023-04-12T15:17:49.096Z,0.40
2023-04-12T15:20:17.310Z,0.30
2023-04-12T15:22:45.157Z,0.30
2023-04-12T15:25:12.820Z,0.20
2023-04-12T15:27:44.053Z,0.38
2023-04-12T15:30:15.304Z,0.80
2023-04-12T15:32:47.145Z,0.20
2023-04-12T15:35:26.169Z,0.20
2023-04-12T15:37:55.336Z,0.22
2023-04-12T15:40:27.016Z,1.85
2023-04-12T15:42:55.814Z,0.45
2023-04-12T15:45:23.576Z,0.20
2023-04-12T15:47:51.377Z,0.38
2023-04-12T15:50:19.078Z,0.75
2023-04-12T15:52:47.549Z,0.40
2023-04-12T15:55:21.080Z,0.20
2023-04-12T15:57:49.580Z,0.20
2023-04-12T16:00:27.488Z,0.30
2023-04-12T16:02:57.833Z,0.57
2023-04-12T16:05:35.759Z,0.70
2023-04-12T16:10:58.797Z,0.38
2023-04-12T16:13:33.958Z,0.47
2023-04-12T16:16:01.884Z,0.40
2023-04-12T16:18:30.924Z,0.30
2023-04-12T16:21:06.453Z,0.28
2023-04-12T16:23:34.182Z,0.75
2023-04-12T16:26:05.263Z,1.30
2023-04-12T16:31:19.956Z,0.30
2023-04-12T16:33:57.377Z,0.30
2023-04-12T16:36:33.179Z,0.30
2023-04-12T16:39:10.461Z,0.82
2023-04-12T16:41:38.474Z,0.30
2023-04-12T16:44:06.422Z,0.20
2023-04-12T16:46:35.194Z,0.93
2023-04-12T16:49:04.435Z,0.43
2023-04-12T16:51:37.136Z,0.30
2023-04-12T16:54:09.958Z,0.45
2023-04-12T16:56:40.878Z,0.40
2023-04-12T16:59:16.621Z,0.75
2023-04-12T17:01:44.544Z,0.73
2023-04-12T17:04:13.131Z,3.13
2023-04-12T17:06:45.511Z,1.00
2023-04-12T17:09:20.711Z,0.63
2023-04-12T17:11:50.958Z,1.00
2023-04-12T17:14:19.602Z,0.40
2023-04-12T17:16:47.320Z,0.40
2023-04-12T17:19:15.001Z,0.55
2023-04-12T17:21:42.569Z,0.45
2023-04-12T17:24:10.751Z,0.82
2023-04-12T17:26:38.393Z,0.90
2023-04-12T17:29:06.108Z,0.30
2023-04-12T17:34:02.124Z,0.43
2023-04-12T17:36:31.564Z,0.30
2023-04-12T17:39:04.722Z,0.40
2023-04-12T17:41:32.341Z,0.40
2023-04-12T17:44:00.354Z,0.65
2023-04-12T17:46:28.077Z,0.32
2023-04-12T17:48:58.013Z,0.40
2023-04-12T17:51:26.724Z,0.52
2023-04-12T17:53:55.185Z,0.30
2023-04-12T17:56:22.800Z,0.60
2023-04-12T17:58:51.109Z,0.40
2023-04-12T18:01:24.051Z,0.82
2023-04-12T18:03:54.334Z,1.85
2023-04-12T18:06:23.925Z,0.33
2023-04-12T18:08:52.615Z,0.80
2023-04-12T18:11:20.515Z,0.38
2023-04-12T18:13:48.467Z,0.50
2023-04-12T18:16:17.018Z,0.20
2023-04-12T18:18:45.497Z,2.25
2023-04-12T18:21:25.106Z,0.55
2023-04-12T18:23:52.631Z,0.43
2023-04-12T18:26:20.537Z,0.30
2023-04-12T18:28:51.891Z,0.30
2023-04-12T18:31:20.012Z,0.75
2023-04-12T18:33:56.872Z,0.55
2023-04-12T18:36:27.073Z,0.47
2023-04-12T18:38:54.765Z,1.35
2023-04-12T18:41:22.285Z,1.05
2023-04-12T18:43:49.834Z,0.40
2023-04-12T18:46:18.257Z,0.82
2023-04-12T18:48:46.877Z,0.50
2023-04-12T18:51:15.405Z,0.57
2023-04-12T18:53:45.102Z,0.50
2023-04-12T18:56:13.898Z,0.88
2023-04-12T18:58:54.610Z,0.30
2023-04-12T19:01:24.132Z,0.88
2023-04-12T19:03:52.324Z,0.40
2023-04-12T19:06:22.119Z,0.75
2023-04-12T19:08:52.756Z,1.35
2023-04-12T19:11:20.689Z,0.65
2023-04-12T19:13:48.656Z,0.75
2023-04-12T19:16:16.205Z,1.10
2023-04-12T19:18:43.855Z,0.82
2023-04-12T19:21:11.440Z,1.25
2023-04-12T19:23:38.991Z,1.38
2023-04-12T19:26:07.221Z,1.13
2023-04-12T19:28:34.679Z,1.10
2023-04-12T19:31:22.054Z,1.52
2023-04-12T19:33:49.990Z,2.53
2023-04-12T19:36:19.387Z,1.58
2023-04-12T19:38:52.933Z,0.60
2023-04-12T19:41:23.702Z,0.40
2023-04-12T19:43:51.302Z,1.08
2023-04-12T19:46:19.369Z,1.15
2023-04-12T19:48:47.426Z,2.33
2023-04-12T19:51:18.310Z,0.40
2023-04-12T19:53:51.299Z,0.30
2023-04-12T19:56:20.923Z,0.35
2023-04-12T20:01:52.496Z,0.85
2023-04-12T20:04:24.159Z,0.30
2023-04-12T20:06:52.268Z,0.80
2023-04-12T20:09:28.663Z,0.43
2023-04-12T20:12:01.219Z,0.75
2023-04-12T20:14:31.803Z,1.60
2023-04-12T20:17:00.664Z,0.43
2023-04-12T20:19:28.591Z,0.40
2023-04-12T20:22:01.718Z,0.45
2023-04-12T20:24:30.081Z,0.77
2023-04-12T20:27:00.515Z,1.65
2023-04-12T20:36:22.402Z,0.38
2023-04-12T20:38:50.844Z,0.30
2023-04-12T20:41:18.718Z,1.00
2023-04-12T20:43:47.718Z,0.68
2023-04-12T20:46:16.820Z,0.45
2023-04-12T20:48:46.384Z,0.30
2023-04-12T20:51:15.288Z,0.30
2023-04-12T20:53:52.378Z,0.30
2023-04-12T20:56:19.966Z,1.30
2023-04-12T20:58:49.610Z,0.30
2023-04-12T21:01:18.550Z,0.40
2023-04-12T21:03:46.766Z,0.45
2023-04-12T21:06:14.442Z,0.60
2023-04-12T21:08:43.313Z,0.52
2023-04-12T21:11:10.830Z,0.60
2023-04-12T21:13:38.292Z,0.40
2023-04-12T21:16:07.098Z,0.32
2023-04-12T21:18:36.170Z,2.85
2023-04-12T21:21:03.876Z,1.25
2023-04-12T21:23:31.494Z,0.30
2023-04-12T21:25:59.276Z,0.55
2023-04-12T21:28:29.488Z,0.63
2023-04-12T21:30:59.445Z,0.35
2023-04-12T21:33:31.588Z,0.52
2023-04-12T21:36:00.176Z,0.45
2023-04-12T21:38:27.730Z,0.75
2023-04-12T21:40:58.701Z,0.88
2023-04-12T21:43:26.885Z,0.40
2023-04-12T21:45:54.620Z,0.63
2023-04-12T21:48:22.369Z,0.57
2023-04-12T21:50:49.825Z,0.30
2023-04-12T21:53:17.564Z,0.77
2023-04-12T21:55:45.196Z,0.43
2023-04-12T21:58:12.905Z,0.30
2023-04-12T22:00:41.672Z,0.30
2023-04-12T22:03:09.514Z,0.30
2023-04-12T22:05:39.945Z,1.02
2023-04-12T22:08:07.752Z,0.47
2023-04-12T22:10:35.629Z,0.45
2023-04-12T22:13:03.664Z,0.30
2023-04-12T22:15:31.883Z,0.73
2023-04-12T22:18:01.159Z,1.13
2023-04-12T22:20:28.857Z,0.20
2023-04-12T22:22:57.299Z,0.30
2023-04-12T22:25:25.988Z,0.77
2023-04-12T22:27:57.661Z,0.40
2023-04-12T22:30:25.984Z,0.30
2023-04-12T22:32:54.531Z,0.68
2023-04-12T22:35:25.021Z,0.25
2023-04-12T22:37:53.029Z,0.73
2023-04-12T22:40:20.700Z,1.27
2023-04-12T22:42:48.838Z,0.50
2023-04-12T22:45:17.259Z,0.85
2023-04-12T22:47:45.707Z,2.78
2023-04-12T22:50:13.475Z,0.28
2023-04-12T22:52:41.759Z,0.50
2023-04-12T22:55:11.604Z,1.50
2023-04-12T22:57:39.112Z,1.00
2023-04-12T23:00:07.280Z,0.38
2023-04-12T23:02:34.978Z,0.47
2023-04-12T23:05:02.888Z,0.55
2023-04-12T23:07:31.201Z,2.20
2023-04-12T23:09:58.825Z,2.00
2023-04-12T23:12:26.420Z,2.05
2023-04-12T23:14:55.615Z,0.30
2023-04-12T23:17:23.390Z,0.50
2023-04-12T23:19:51.772Z,0.90
2023-04-12T23:22:55.336Z,0.30
2023-04-12T23:25:25.639Z,0.70
2023-04-12T23:27:53.805Z,0.40
2023-04-12T23:30:22.468Z,0.73
2023-04-12T23:32:50.011Z,1.13
2023-04-12T23:35:17.645Z,0.40
2023-04-12T23:37:45.289Z,0.55
2023-04-12T23:40:15.083Z,3.45
2023-04-12T23:42:43.905Z,0.55
2023-04-12T23:45:11.949Z,1.23
2023-04-12T23:47:39.612Z,1.80
2023-04-12T23:50:07.494Z,1.02
2023-04-12T23:52:35.071Z,0.30
2023-04-12T23:55:03.229Z,0.55
2023-04-12T23:57:30.812Z,2.17
2023-04-12T23:59:58.484Z,0.65
